createdAt,value
2018-01-10T00:00:26.106Z,25.75
2018-01-10T00:00:57.750Z,26.02
2018-01-10T00:01:29.286Z,24.83
2018-01-10T00:02:00.849Z,26.20
2018-01-10T00:02:32.416Z,25.62
2018-01-10T00:03:03.965Z,25.67
2018-01-10T00:03:35.522Z,24.67
2018-01-10T00:04:07.063Z,24.42
2018-01-10T00:04:38.630Z,25.48
2018-01-10T00:05:10.189Z,25.40
2018-01-10T00:05:41.725Z,24.80
2018-01-10T00:06:13.279Z,25.12
2018-01-10T00:06:44.859Z,26.37
2018-01-10T00:07:16.441Z,25.77
2018-01-10T00:07:48.010Z,26.77
2018-01-10T00:08:19.591Z,26.75
2018-01-10T00:08:51.194Z,26.48
2018-01-10T00:09:22.733Z,24.80
2018-01-10T00:09:54.318Z,25.62
2018-01-10T00:10:25.883Z,26.67
2018-01-10T00:10:57.460Z,25.67
2018-01-10T00:11:29.029Z,26.52
2018-01-10T00:12:00.584Z,26.60
2018-01-10T00:12:32.140Z,26.92
2018-01-10T00:13:03.707Z,25.88
2018-01-10T00:13:35.274Z,26.08
2018-01-10T00:14:06.845Z,26.17
2018-01-10T00:14:38.421Z,27.83
2018-01-10T00:15:10.007Z,27.10
2018-01-10T00:15:41.558Z,25.98
2018-01-10T00:16:13.104Z,27.17
2018-01-10T00:16:44.660Z,26.50
2018-01-10T00:17:16.213Z,27.33
2018-01-10T00:17:47.761Z,27.52
2018-01-10T00:18:19.328Z,27.15
2018-01-10T00:18:50.904Z,26.62
2018-01-10T00:19:22.485Z,26.73
2018-01-10T00:19:54.044Z,26.10
2018-01-10T00:20:25.631Z,26.42
2018-01-10T00:20:57.184Z,26.80
2018-01-10T00:21:28.739Z,27.35
2018-01-10T00:22:00.270Z,27.30
2018-01-10T00:22:31.794Z,25.85
2018-01-10T00:23:03.369Z,26.92
2018-01-10T00:23:34.919Z,25.80
2018-01-10T00:24:06.474Z,25.12
2018-01-10T00:24:38.046Z,28.00
2018-01-10T00:25:09.608Z,25.90
2018-01-10T00:25:41.176Z,26.45
2018-01-10T00:26:12.722Z,27.80
2018-01-10T00:26:44.271Z,27.20
2018-01-10T00:27:15.833Z,26.45
2018-01-10T00:27:47.510Z,26.98
2018-01-10T00:28:19.075Z,26.48
2018-01-10T00:28:50.662Z,28.17
2018-01-10T00:29:22.220Z,26.40
2018-01-10T00:29:53.752Z,26.02
2018-01-10T00:30:25.292Z,27.20
2018-01-10T00:30:56.843Z,25.65
2018-01-10T00:31:28.407Z,25.75
2018-01-10T00:31:59.976Z,27.05
2018-01-10T00:32:31.530Z,26.35
2018-01-10T00:33:03.093Z,24.65
2018-01-10T00:33:34.656Z,26.67
2018-01-10T00:34:06.209Z,26.90
2018-01-10T00:34:37.768Z,25.88
2018-01-10T00:35:09.348Z,26.27
2018-01-10T00:35:40.917Z,25.85
2018-01-10T00:36:12.511Z,25.70
2018-01-10T00:36:44.074Z,26.35
2018-01-10T00:37:15.638Z,26.70
2018-01-10T00:37:47.196Z,27.27
2018-01-10T00:38:18.758Z,27.17
2018-01-10T00:38:50.308Z,27.05
2018-01-10T00:39:21.868Z,26.60
2018-01-10T00:39:53.444Z,26.17
2018-01-10T00:40:24.990Z,26.92
2018-01-10T00:40:56.555Z,27.85
2018-01-10T00:41:28.140Z,27.87
2018-01-10T00:41:59.695Z,25.83
2018-01-10T00:42:31.258Z,27.33
2018-01-10T00:43:02.796Z,28.65
2018-01-10T00:43:34.355Z,26.92
2018-01-10T00:44:05.900Z,25.92
2018-01-10T00:44:37.461Z,25.75
2018-01-10T00:45:09.028Z,27.08
2018-01-10T00:45:40.572Z,26.75
2018-01-10T00:46:12.148Z,28.12
2018-01-10T00:46:43.732Z,27.48
2018-01-10T00:47:15.321Z,27.55
2018-01-10T00:47:46.872Z,28.40
2018-01-10T00:48:18.432Z,27.30
2018-01-10T00:48:50.000Z,26.87
2018-01-10T00:49:21.545Z,27.00
2018-01-10T00:49:53.104Z,26.85
2018-01-10T00:50:24.674Z,26.55
2018-01-10T00:50:56.219Z,27.20
2018-01-10T00:51:27.761Z,28.05
2018-01-10T00:51:59.325Z,27.15
2018-01-10T00:52:30.873Z,26.83
2018-01-10T00:53:02.415Z,27.17
2018-01-10T00:53:33.984Z,28.45
2018-01-10T00:54:05.588Z,28.23
2018-01-10T00:54:37.134Z,27.52
2018-01-10T00:55:08.680Z,27.55
2018-01-10T00:55:40.243Z,28.12
2018-01-10T00:56:11.792Z,27.48
2018-01-10T00:56:43.328Z,27.05
2018-01-10T00:57:14.905Z,28.27
2018-01-10T00:57:46.470Z,27.20
2018-01-10T00:58:18.040Z,28.20
2018-01-10T00:58:49.592Z,28.83
2018-01-10T00:59:21.136Z,29.00
2018-01-10T00:59:52.675Z,27.30
2018-01-10T01:00:24.266Z,27.13
2018-01-10T01:00:55.836Z,26.90
2018-01-10T01:01:27.437Z,27.45
2018-01-10T01:01:58.978Z,27.50
2018-01-10T01:02:30.544Z,28.12
2018-01-10T01:03:02.108Z,28.25
2018-01-10T01:03:33.679Z,26.77
2018-01-10T01:04:05.246Z,27.95
2018-01-10T01:04:36.810Z,27.23
2018-01-10T01:05:08.368Z,27.27
2018-01-10T01:05:39.951Z,27.37
2018-01-10T01:06:11.514Z,27.52
2018-01-10T01:06:43.084Z,26.37
2018-01-10T01:07:14.658Z,26.67
2018-01-10T01:07:46.217Z,25.98
2018-01-10T01:08:17.768Z,26.83
2018-01-10T01:08:49.335Z,27.05
2018-01-10T01:09:20.884Z,26.40
2018-01-10T01:09:52.622Z,25.52
2018-01-10T01:10:24.180Z,26.35
2018-01-10T01:10:55.742Z,26.33
2018-01-10T01:11:27.318Z,25.00
2018-01-10T01:11:58.913Z,24.48
2018-01-10T01:12:30.461Z,25.83
2018-01-10T01:13:02.079Z,26.08
2018-01-10T01:13:33.648Z,25.77
2018-01-10T01:14:05.215Z,27.02
2018-01-10T01:14:36.798Z,27.85
2018-01-10T01:15:08.356Z,26.77
2018-01-10T01:15:39.930Z,27.60
2018-01-10T01:16:11.492Z,26.17
2018-01-10T01:16:43.056Z,25.30
2018-01-10T01:17:14.608Z,27.73
2018-01-10T01:17:46.155Z,26.15
2018-01-10T01:18:17.708Z,27.35
2018-01-10T01:18:49.266Z,26.42
2018-01-10T01:19:20.829Z,26.67
2018-01-10T01:19:52.410Z,25.85
2018-01-10T01:20:23.950Z,25.40
2018-01-10T01:20:55.504Z,25.48
2018-01-10T01:21:27.063Z,25.20
2018-01-10T01:21:58.610Z,26.60
2018-01-10T01:22:30.169Z,26.45
2018-01-10T01:23:01.724Z,27.42
2018-01-10T01:23:33.292Z,26.50
2018-01-10T01:24:04.872Z,26.83
2018-01-10T01:24:36.432Z,26.83
2018-01-10T01:25:07.996Z,26.92
2018-01-10T01:25:39.553Z,25.35
2018-01-10T01:26:11.113Z,26.90
2018-01-10T01:26:42.675Z,27.55
2018-01-10T01:27:14.232Z,27.62
2018-01-10T01:27:45.820Z,27.33
2018-01-10T01:28:17.386Z,25.98
2018-01-10T01:28:48.936Z,26.67
2018-01-10T01:29:20.477Z,25.88
2018-01-10T01:29:52.027Z,24.25
2018-01-10T01:30:23.580Z,24.85
2018-01-10T01:30:55.148Z,27.40
2018-01-10T01:31:26.742Z,25.58
2018-01-10T01:31:58.319Z,26.30
2018-01-10T01:32:29.887Z,26.75
2018-01-10T01:33:01.461Z,25.58
2018-01-10T01:33:33.002Z,25.60
2018-01-10T01:34:04.576Z,25.45
2018-01-10T01:34:36.206Z,26.45
2018-01-10T01:35:07.770Z,25.98
2018-01-10T01:35:39.348Z,26.05
2018-01-10T01:36:10.901Z,25.98
2018-01-10T01:36:42.463Z,26.80
2018-01-10T01:37:14.012Z,25.23
2018-01-10T01:37:45.564Z,27.30
2018-01-10T01:38:17.142Z,26.67
2018-01-10T01:38:48.710Z,26.50
2018-01-10T01:39:20.280Z,26.62
2018-01-10T01:39:51.824Z,25.02
2018-01-10T01:40:23.370Z,26.87
2018-01-10T01:40:54.935Z,25.25
2018-01-10T01:41:26.500Z,27.40
2018-01-10T01:41:58.075Z,27.67
2018-01-10T01:42:29.636Z,26.65
2018-01-10T01:43:01.196Z,26.42
2018-01-10T01:43:32.740Z,25.58
2018-01-10T01:44:04.312Z,25.37
2018-01-10T01:44:35.900Z,26.98
2018-01-10T01:45:07.470Z,26.50
2018-01-10T01:45:39.044Z,26.05
2018-01-10T01:46:10.612Z,25.55
2018-01-10T01:46:42.184Z,24.33
2018-01-10T01:47:13.742Z,26.98
2018-01-10T01:47:45.302Z,26.37
2018-01-10T01:48:16.864Z,27.17
2018-01-10T01:48:48.425Z,26.70
2018-01-10T01:49:19.986Z,23.60
2018-01-10T01:49:51.569Z,26.30
2018-01-10T01:50:23.132Z,27.45
2018-01-10T01:50:54.675Z,27.10
2018-01-10T01:51:26.248Z,24.98
2018-01-10T01:51:57.806Z,26.60
2018-01-10T01:52:29.366Z,25.75
2018-01-10T01:53:00.914Z,27.33
2018-01-10T01:53:32.494Z,26.05
2018-01-10T01:54:04.050Z,25.60
2018-01-10T01:54:35.610Z,27.40
2018-01-10T01:55:07.204Z,27.00
2018-01-10T01:55:38.779Z,26.58
2018-01-10T01:56:10.320Z,26.60
2018-01-10T01:56:41.860Z,25.92
2018-01-10T01:57:13.428Z,25.92
2018-01-10T01:57:44.967Z,27.85
2018-01-10T01:58:16.509Z,27.48
2018-01-10T01:58:48.080Z,27.98
2018-01-10T01:59:19.689Z,28.10
2018-01-10T01:59:51.300Z,27.37
2018-01-10T02:00:22.897Z,26.08
2018-01-10T02:00:54.470Z,27.48
2018-01-10T02:01:26.054Z,26.98
2018-01-10T02:01:57.612Z,26.62
2018-01-10T02:02:29.174Z,26.50
2018-01-10T02:03:00.722Z,26.60
2018-01-10T02:03:32.264Z,25.33
2018-01-10T02:04:03.852Z,26.27
2018-01-10T02:04:35.452Z,26.37
2018-01-10T02:05:07.025Z,25.60
2018-01-10T02:05:38.590Z,26.75
2018-01-10T02:06:10.168Z,25.67
2018-01-10T02:06:41.746Z,27.55
2018-01-10T02:07:13.324Z,26.85
2018-01-10T02:07:44.875Z,26.02
2018-01-10T02:08:16.444Z,26.08
2018-01-10T02:08:48.014Z,26.90
2018-01-10T02:09:19.570Z,25.75
2018-01-10T02:09:51.140Z,25.90
2018-01-10T02:10:22.705Z,25.42
2018-01-10T02:10:54.284Z,27.20
2018-01-10T02:11:25.852Z,27.15
2018-01-10T02:11:57.392Z,24.98
2018-01-10T02:12:28.967Z,24.20
2018-01-10T02:13:00.513Z,26.52
2018-01-10T02:13:32.088Z,26.60
2018-01-10T02:14:03.652Z,26.08
2018-01-10T02:14:35.232Z,26.35
2018-01-10T02:15:06.787Z,25.75
2018-01-10T02:15:38.337Z,25.73
2018-01-10T02:16:09.922Z,25.80
2018-01-10T02:16:41.488Z,27.05
2018-01-10T02:17:13.043Z,26.20
2018-01-10T02:17:44.627Z,26.87
2018-01-10T02:18:16.206Z,26.67
2018-01-10T02:18:47.784Z,26.23
2018-01-10T02:19:19.364Z,25.42
2018-01-10T02:19:50.948Z,24.63
2018-01-10T02:20:22.524Z,27.55
2018-01-10T02:20:54.122Z,27.85
2018-01-10T02:21:25.696Z,26.27
2018-01-10T02:21:57.232Z,26.83
2018-01-10T02:22:28.808Z,26.65
2018-01-10T02:23:00.376Z,25.17
2018-01-10T02:23:31.920Z,26.50
2018-01-10T02:24:03.487Z,26.73
2018-01-10T02:24:35.072Z,24.90
2018-01-10T02:25:06.642Z,26.98
2018-01-10T02:25:38.192Z,26.05
2018-01-10T02:26:09.744Z,27.55
2018-01-10T02:26:41.336Z,27.15
2018-01-10T02:27:12.892Z,25.67
2018-01-10T02:27:44.452Z,26.17
2018-01-10T02:28:16.033Z,26.83
2018-01-10T02:28:47.574Z,27.35
2018-01-10T02:29:19.136Z,25.80
2018-01-10T02:29:50.704Z,26.12
2018-01-10T02:30:22.270Z,24.27
2018-01-10T02:30:53.847Z,25.98
2018-01-10T02:31:25.413Z,24.83
2018-01-10T02:31:56.990Z,27.70
2018-01-10T02:32:28.540Z,26.40
2018-01-10T02:33:00.108Z,26.90
2018-01-10T02:33:31.660Z,25.75
2018-01-10T02:34:03.204Z,26.20
2018-01-10T02:34:34.754Z,26.42
2018-01-10T02:35:06.312Z,25.00
2018-01-10T02:35:37.868Z,24.87
2018-01-10T02:36:09.406Z,25.42
2018-01-10T02:36:40.967Z,25.88
2018-01-10T02:37:12.529Z,25.75
2018-01-10T02:37:44.088Z,26.05
2018-01-10T02:38:15.648Z,25.52
2018-01-10T02:38:47.220Z,26.00
2018-01-10T02:39:18.778Z,26.73
2018-01-10T02:39:50.325Z,25.48
2018-01-10T02:40:21.878Z,25.25
2018-01-10T02:40:53.432Z,26.05
2018-01-10T02:41:24.996Z,26.92
2018-01-10T02:41:56.560Z,26.12
2018-01-10T02:42:36.340Z,25.85
2018-01-10T02:43:07.898Z,25.12
2018-01-10T02:43:39.476Z,25.55
2018-01-10T02:44:11.039Z,26.55
2018-01-10T02:44:42.601Z,24.70
2018-01-10T02:45:14.171Z,24.25
2018-01-10T02:45:45.738Z,26.65
2018-01-10T02:46:17.261Z,26.48
2018-01-10T02:46:48.804Z,27.10
2018-01-10T02:47:20.425Z,26.80
2018-01-10T02:47:52.071Z,25.67
2018-01-10T02:48:23.621Z,24.33
2018-01-10T02:48:55.200Z,27.13
2018-01-10T02:49:26.752Z,26.65
2018-01-10T02:49:58.352Z,26.77
2018-01-10T02:50:29.920Z,27.13
2018-01-10T02:51:01.497Z,26.58
2018-01-10T02:51:33.047Z,26.02
2018-01-10T02:52:04.615Z,27.20
2018-01-10T02:52:36.190Z,26.73
2018-01-10T02:53:07.772Z,25.25
2018-01-10T02:53:39.355Z,26.62
2018-01-10T02:54:10.924Z,26.92
2018-01-10T02:54:42.488Z,25.85
2018-01-10T02:55:14.060Z,25.80
2018-01-10T02:55:45.639Z,26.58
2018-01-10T02:56:17.218Z,25.73
2018-01-10T02:56:48.809Z,24.95
2018-01-10T02:57:20.387Z,26.33
2018-01-10T02:57:52.013Z,26.67
2018-01-10T02:58:23.576Z,26.92
2018-01-10T02:58:55.158Z,26.02
2018-01-10T02:59:26.730Z,25.83
2018-01-10T02:59:58.308Z,26.10
2018-01-10T03:00:29.876Z,24.77
2018-01-10T03:01:01.469Z,26.20
2018-01-10T03:01:33.058Z,26.12
2018-01-10T03:02:04.672Z,26.55
2018-01-10T03:02:36.291Z,25.35
2018-01-10T03:03:07.850Z,24.90
2018-01-10T03:03:39.444Z,25.17
2018-01-10T03:04:11.021Z,24.50
2018-01-10T03:04:42.590Z,25.48
2018-01-10T03:05:14.168Z,27.23
2018-01-10T03:05:45.734Z,25.62
2018-01-10T03:06:17.277Z,25.92
2018-01-10T03:06:48.866Z,25.95
2018-01-10T03:07:20.448Z,25.83
2018-01-10T03:07:52.018Z,24.73
2018-01-10T03:08:23.610Z,24.45
2018-01-10T03:08:55.594Z,26.42
2018-01-10T03:09:27.154Z,27.27
2018-01-10T03:09:58.714Z,25.42
2018-01-10T03:10:30.312Z,25.75
2018-01-10T03:11:01.877Z,24.37
2018-01-10T03:11:33.441Z,25.58
2018-01-10T03:12:05.021Z,25.27
2018-01-10T03:12:36.589Z,24.33
2018-01-10T03:13:08.166Z,24.75
2018-01-10T03:13:39.724Z,25.27
2018-01-10T03:14:11.346Z,24.27
2018-01-10T03:14:42.916Z,23.92
2018-01-10T03:15:14.495Z,25.08
2018-01-10T03:15:46.038Z,24.55
2018-01-10T03:16:17.621Z,24.20
2018-01-10T03:16:49.194Z,22.70
2018-01-10T03:17:20.756Z,24.27
2018-01-10T03:17:52.316Z,24.48
2018-01-10T03:18:23.876Z,24.70
2018-01-10T03:18:55.476Z,25.70
2018-01-10T03:19:27.068Z,23.25
2018-01-10T03:19:58.655Z,22.83
2018-01-10T03:20:30.212Z,22.65
2018-01-10T03:21:01.776Z,22.70
2018-01-10T03:21:33.343Z,24.05
2018-01-10T03:22:04.897Z,24.37
2018-01-10T03:22:36.472Z,23.83
2018-01-10T03:23:08.051Z,23.98
2018-01-10T03:23:39.621Z,23.08
2018-01-10T03:24:11.186Z,25.20
2018-01-10T03:24:42.764Z,24.12
2018-01-10T03:25:14.308Z,23.50
2018-01-10T03:25:45.893Z,22.85
2018-01-10T03:26:17.436Z,23.55
2018-01-10T03:26:48.996Z,23.40
2018-01-10T03:27:21.068Z,24.15
2018-01-10T03:27:52.639Z,23.95
2018-01-10T03:28:24.206Z,23.83
2018-01-10T03:28:55.800Z,22.67
2018-01-10T03:29:27.362Z,22.42
2018-01-10T03:29:58.936Z,22.58
2018-01-10T03:30:30.511Z,24.30
2018-01-10T03:31:02.060Z,22.90
2018-01-10T03:31:33.625Z,22.60
2018-01-10T03:32:05.192Z,22.67
2018-01-10T03:32:36.776Z,23.00
2018-01-10T03:33:08.326Z,22.27
2018-01-10T03:33:39.920Z,21.20
2018-01-10T03:34:11.502Z,21.83
2018-01-10T03:34:43.105Z,23.75
2018-01-10T03:35:14.657Z,22.13
2018-01-10T03:35:46.214Z,21.15
2018-01-10T03:36:17.803Z,22.15
2018-01-10T03:36:49.377Z,22.20
2018-01-10T03:37:20.958Z,22.13
2018-01-10T03:37:52.532Z,23.95
2018-01-10T03:38:24.093Z,22.37
2018-01-10T03:38:55.656Z,23.08
2018-01-10T03:39:27.218Z,21.42
2018-01-10T03:39:58.789Z,22.55
2018-01-10T03:40:30.384Z,21.52
2018-01-10T03:41:01.945Z,21.45
2018-01-10T03:41:33.528Z,22.90
2018-01-10T03:42:05.087Z,21.42
2018-01-10T03:42:36.662Z,22.05
2018-01-10T03:43:08.218Z,21.70
2018-01-10T03:43:39.785Z,21.58
2018-01-10T03:44:11.356Z,22.37
2018-01-10T03:44:42.933Z,20.92
2018-01-10T03:45:14.500Z,20.12
2018-01-10T03:45:46.091Z,20.55
2018-01-10T03:46:17.656Z,21.10
2018-01-10T03:46:49.248Z,21.10
2018-01-10T03:47:20.805Z,21.27
2018-01-10T03:47:52.396Z,23.20
2018-01-10T03:48:23.944Z,20.25
2018-01-10T03:48:55.504Z,20.60
2018-01-10T03:49:27.062Z,20.67
2018-01-10T03:49:58.618Z,21.27
2018-01-10T03:50:30.158Z,20.05
2018-01-10T03:51:01.712Z,20.00
2018-01-10T03:51:33.254Z,21.73
2018-01-10T03:52:04.804Z,20.35
2018-01-10T03:52:36.366Z,23.80
2018-01-10T03:53:07.928Z,21.60
2018-01-10T03:53:39.483Z,21.08
2018-01-10T03:54:11.070Z,20.10
2018-01-10T03:54:42.642Z,22.77
2018-01-10T03:55:14.192Z,20.92
2018-01-10T03:55:45.741Z,20.35
2018-01-10T03:56:17.302Z,20.45
2018-01-10T03:56:48.872Z,20.90
2018-01-10T03:57:20.436Z,20.90
2018-01-10T03:57:52.062Z,21.17
2018-01-10T03:58:23.596Z,22.27
2018-01-10T03:58:55.160Z,20.58
2018-01-10T03:59:26.720Z,19.92
2018-01-10T03:59:58.265Z,20.98
2018-01-10T04:00:29.858Z,20.05
2018-01-10T04:01:01.444Z,20.33
2018-01-10T04:01:33.000Z,20.45
2018-01-10T04:02:04.553Z,19.33
2018-01-10T04:02:36.136Z,21.73
2018-01-10T04:03:07.686Z,20.75
2018-01-10T04:03:39.252Z,19.67
2018-01-10T04:04:10.808Z,19.83
2018-01-10T04:04:42.352Z,20.62
2018-01-10T04:05:13.897Z,19.60
2018-01-10T04:05:45.452Z,20.60
2018-01-10T04:06:17.028Z,19.75
2018-01-10T04:06:48.588Z,19.02
2018-01-10T04:07:20.133Z,20.05
2018-01-10T04:07:51.676Z,20.45
2018-01-10T04:08:23.224Z,20.23
2018-01-10T04:08:54.788Z,20.88
2018-01-10T04:09:26.350Z,20.17
2018-01-10T04:09:57.890Z,19.58
2018-01-10T04:10:29.452Z,20.58
2018-01-10T04:11:01.018Z,20.40
2018-01-10T04:11:32.592Z,21.17
2018-01-10T04:12:04.173Z,20.40
2018-01-10T04:12:35.716Z,20.20
2018-01-10T04:13:07.258Z,20.00
2018-01-10T04:13:38.796Z,20.85
2018-01-10T04:14:10.332Z,21.40
2018-01-10T04:14:41.909Z,21.17
2018-01-10T04:15:13.484Z,20.85
2018-01-10T04:15:45.045Z,20.35
2018-01-10T04:16:16.616Z,19.77
2018-01-10T04:16:48.172Z,19.80
2018-01-10T04:17:19.720Z,19.30
2018-01-10T04:17:51.268Z,21.00
2018-01-10T04:18:22.838Z,20.35
2018-01-10T04:18:54.386Z,19.98
2018-01-10T04:19:25.944Z,20.02
2018-01-10T04:19:57.514Z,20.23
2018-01-10T04:20:29.068Z,19.92
2018-01-10T04:21:00.616Z,18.77
2018-01-10T04:21:32.160Z,19.50
2018-01-10T04:22:03.720Z,20.65
2018-01-10T04:22:35.276Z,19.23
2018-01-10T04:23:06.841Z,20.98
2018-01-10T04:23:38.388Z,20.27
2018-01-10T04:24:09.921Z,21.65
2018-01-10T04:24:41.458Z,20.73
2018-01-10T04:25:13.026Z,20.30
2018-01-10T04:25:44.585Z,20.40
2018-01-10T04:26:16.153Z,20.48
2018-01-10T04:26:47.692Z,20.65
2018-01-10T04:27:19.256Z,19.20
2018-01-10T04:27:50.816Z,19.95
2018-01-10T04:28:22.364Z,19.40
2018-01-10T04:28:53.926Z,19.60
2018-01-10T04:29:25.490Z,20.90
2018-01-10T04:29:57.046Z,20.12
2018-01-10T04:30:28.592Z,21.40
2018-01-10T04:31:00.160Z,20.35
2018-01-10T04:31:31.718Z,20.58
2018-01-10T04:32:03.269Z,19.42
2018-01-10T04:32:34.838Z,20.52
2018-01-10T04:33:06.418Z,20.23
2018-01-10T04:33:37.994Z,20.65
2018-01-10T04:34:09.544Z,20.48
2018-01-10T04:34:41.084Z,19.60
2018-01-10T04:35:12.625Z,19.58
2018-01-10T04:35:44.168Z,20.33
2018-01-10T04:36:15.721Z,19.65
2018-01-10T04:36:47.251Z,19.85
2018-01-10T04:37:18.800Z,21.67
2018-01-10T04:37:50.343Z,20.23
2018-01-10T04:38:21.890Z,20.05
2018-01-10T04:38:53.451Z,20.05
2018-01-10T04:39:25.009Z,20.75
2018-01-10T04:39:56.560Z,20.33
2018-01-10T04:40:28.120Z,20.70
2018-01-10T04:40:59.676Z,19.87
2018-01-10T04:41:31.235Z,20.45
2018-01-10T04:42:02.780Z,21.08
2018-01-10T04:42:34.324Z,20.45
2018-01-10T04:43:05.884Z,20.50
2018-01-10T04:43:37.452Z,19.00
2018-01-10T04:44:09.012Z,20.92
2018-01-10T04:44:40.554Z,21.48
2018-01-10T04:45:12.108Z,19.45
2018-01-10T04:45:43.704Z,19.20
2018-01-10T04:46:15.250Z,19.98
2018-01-10T04:46:46.816Z,21.62
2018-01-10T04:47:18.370Z,21.45
2018-01-10T04:47:49.930Z,21.15
2018-01-10T04:48:21.520Z,20.30
2018-01-10T04:48:53.089Z,18.27
2018-01-10T04:49:24.645Z,20.42
2018-01-10T04:49:56.188Z,19.65
2018-01-10T04:50:27.736Z,20.42
2018-01-10T04:50:59.294Z,21.37
2018-01-10T04:51:30.871Z,19.90
2018-01-10T04:52:02.452Z,20.95
2018-01-10T04:52:34.016Z,19.15
2018-01-10T04:53:05.560Z,20.30
2018-01-10T04:53:37.144Z,20.23
2018-01-10T04:54:08.706Z,20.85
2018-01-10T04:54:40.268Z,20.37
2018-01-10T04:55:11.828Z,21.10
2018-01-10T04:55:43.416Z,21.75
2018-01-10T04:56:14.968Z,19.87
2018-01-10T04:56:46.540Z,19.80
2018-01-10T04:57:18.104Z,20.12
2018-01-10T04:57:49.680Z,21.10
2018-01-10T04:58:21.258Z,19.85
2018-01-10T04:58:52.824Z,20.42
2018-01-10T04:59:24.400Z,20.42
2018-01-10T04:59:55.946Z,20.25
2018-01-10T05:00:27.512Z,21.45
2018-01-10T05:00:59.096Z,21.45
2018-01-10T05:01:30.648Z,19.87
2018-01-10T05:02:02.232Z,19.23
2018-01-10T05:02:33.800Z,20.35
2018-01-10T05:03:05.390Z,20.67
2018-01-10T05:03:36.955Z,21.23
2018-01-10T05:04:08.506Z,20.02
2018-01-10T05:04:40.073Z,20.65
2018-01-10T05:05:11.622Z,19.50
2018-01-10T05:05:43.184Z,21.27
2018-01-10T05:06:14.798Z,20.77
2018-01-10T05:06:46.354Z,19.55
2018-01-10T05:07:17.922Z,20.55
2018-01-10T05:07:49.500Z,19.30
2018-01-10T05:08:21.058Z,19.67
2018-01-10T05:08:52.622Z,19.33
2018-01-10T05:09:24.180Z,19.52
2018-01-10T05:09:55.830Z,18.92
2018-01-10T05:10:27.424Z,19.42
2018-01-10T05:10:59.002Z,18.92
2018-01-10T05:11:30.604Z,19.15
2018-01-10T05:12:02.192Z,18.08
2018-01-10T05:12:33.740Z,20.23
2018-01-10T05:13:05.326Z,19.40
2018-01-10T05:13:36.886Z,18.52
2018-01-10T05:14:08.448Z,18.58
2018-01-10T05:14:40.006Z,18.65
2018-01-10T05:15:11.552Z,18.33
2018-01-10T05:15:43.114Z,18.62
2018-01-10T05:16:14.668Z,19.08
2018-01-10T05:16:46.232Z,18.75
2018-01-10T05:17:17.794Z,19.67
2018-01-10T05:17:49.351Z,19.40
2018-01-10T05:18:20.915Z,18.98
2018-01-10T05:18:52.474Z,19.60
2018-01-10T05:19:24.038Z,19.87
2018-01-10T05:19:55.622Z,18.83
2018-01-10T05:20:27.200Z,19.12
2018-01-10T05:20:58.783Z,19.58
2018-01-10T05:21:30.374Z,18.83
2018-01-10T05:22:01.942Z,19.10
2018-01-10T05:22:33.492Z,17.67
2018-01-10T05:23:05.067Z,19.02
2018-01-10T05:23:36.654Z,21.20
2018-01-10T05:24:08.226Z,19.37
2018-01-10T05:24:39.780Z,19.15
2018-01-10T05:25:11.342Z,19.58
2018-01-10T05:25:42.880Z,19.52
2018-01-10T05:26:14.428Z,18.65
2018-01-10T05:26:45.978Z,19.67
2018-01-10T05:27:17.540Z,19.48
2018-01-10T05:27:49.100Z,19.87
2018-01-10T05:28:20.668Z,20.45
2018-01-10T05:28:52.232Z,20.17
2018-01-10T05:29:23.794Z,19.92
2018-01-10T05:29:55.360Z,18.92
2018-01-10T05:30:26.920Z,18.90
2018-01-10T05:30:58.512Z,20.45
2018-01-10T05:31:30.106Z,20.80
2018-01-10T05:32:01.672Z,21.52
2018-01-10T05:32:33.248Z,19.42
2018-01-10T05:33:04.808Z,21.12
2018-01-10T05:33:36.420Z,20.10
2018-01-10T05:34:07.978Z,20.12
2018-01-10T05:34:39.652Z,18.67
2018-01-10T05:35:11.235Z,19.12
2018-01-10T05:35:42.808Z,19.33
2018-01-10T05:36:14.380Z,20.65
2018-01-10T05:36:45.950Z,20.83
2018-01-10T05:37:17.514Z,19.67
2018-01-10T05:37:49.136Z,17.75
2018-01-10T05:38:20.698Z,19.37
2018-01-10T05:38:52.284Z,20.60
2018-01-10T05:39:23.898Z,20.05
2018-01-10T05:39:55.476Z,21.20
2018-01-10T05:40:27.032Z,19.25
2018-01-10T05:40:58.592Z,21.45
2018-01-10T05:41:30.168Z,21.45
2018-01-10T05:42:01.738Z,21.05
2018-01-10T05:42:33.328Z,20.08
2018-01-10T05:43:04.908Z,19.83
2018-01-10T05:43:36.471Z,20.83
2018-01-10T05:44:08.038Z,20.92
2018-01-10T05:44:39.616Z,21.35
2018-01-10T05:45:11.198Z,19.55
2018-01-10T05:45:42.777Z,20.40
2018-01-10T05:46:14.344Z,19.90
2018-01-10T05:46:45.908Z,19.95
2018-01-10T05:47:17.460Z,21.00
2018-01-10T05:47:49.037Z,19.87
2018-01-10T05:48:20.610Z,19.67
2018-01-10T05:48:52.180Z,21.50
2018-01-10T05:49:23.740Z,19.42
2018-01-10T05:49:55.307Z,20.70
2018-01-10T05:50:26.888Z,20.75
2018-01-10T05:50:58.457Z,20.52
2018-01-10T05:51:30.050Z,20.25
2018-01-10T05:52:01.625Z,20.02
2018-01-10T05:52:33.175Z,20.52
2018-01-10T05:53:04.732Z,20.98
2018-01-10T05:53:36.309Z,21.27
2018-01-10T05:54:07.871Z,21.25
2018-01-10T05:54:39.434Z,20.88
2018-01-10T05:55:10.995Z,19.65
2018-01-10T05:55:42.568Z,21.70
2018-01-10T05:56:14.137Z,21.08
2018-01-10T05:56:45.724Z,20.55
2018-01-10T05:57:17.308Z,20.45
2018-01-10T05:57:49.059Z,20.67
2018-01-10T05:58:20.630Z,19.27
2018-01-10T05:58:52.224Z,19.25
2018-01-10T05:59:23.780Z,20.08
2018-01-10T05:59:55.350Z,21.20
2018-01-10T06:00:26.937Z,21.02
2018-01-10T06:00:58.511Z,19.90
2018-01-10T06:01:30.066Z,20.25
2018-01-10T06:02:01.616Z,21.15
2018-01-10T06:02:33.148Z,21.42
2018-01-10T06:03:04.696Z,20.73
2018-01-10T06:03:36.263Z,20.40
2018-01-10T06:04:07.818Z,19.12
2018-01-10T06:04:39.383Z,20.17
2018-01-10T06:05:10.952Z,20.02
2018-01-10T06:05:42.512Z,21.90
2018-01-10T06:06:14.080Z,20.27
2018-01-10T06:06:45.659Z,21.92
2018-01-10T06:07:17.218Z,21.50
2018-01-10T06:07:48.780Z,20.17
2018-01-10T06:08:20.346Z,21.20
2018-01-10T06:08:51.896Z,20.75
2018-01-10T06:09:23.446Z,21.08
2018-01-10T06:09:55.004Z,21.17
2018-01-10T06:10:26.552Z,20.75
2018-01-10T06:10:58.136Z,20.30
2018-01-10T06:11:29.688Z,20.42
2018-01-10T06:12:01.256Z,19.85
2018-01-10T06:12:32.824Z,20.55
2018-01-10T06:13:04.495Z,21.50
2018-01-10T06:13:36.069Z,20.55
2018-01-10T06:14:07.614Z,21.30
2018-01-10T06:14:39.219Z,20.67
2018-01-10T06:15:10.756Z,20.90
2018-01-10T06:15:42.320Z,20.37
2018-01-10T06:16:13.894Z,20.52
2018-01-10T06:16:45.458Z,19.25
2018-01-10T06:17:17.022Z,19.42
2018-01-10T06:17:48.590Z,20.45
2018-01-10T06:18:20.160Z,21.08
2018-01-10T06:18:51.744Z,21.15
2018-01-10T06:19:23.311Z,22.17
2018-01-10T06:19:54.868Z,19.92
2018-01-10T06:20:26.446Z,20.70
2018-01-10T06:20:58.000Z,19.62
2018-01-10T06:21:29.562Z,20.48
2018-01-10T06:22:01.127Z,20.90
2018-01-10T06:22:32.686Z,22.05
2018-01-10T06:23:04.239Z,20.37
2018-01-10T06:23:35.805Z,21.65
2018-01-10T06:24:07.346Z,18.85
2018-01-10T06:24:38.912Z,21.33
2018-01-10T06:25:10.474Z,20.40
2018-01-10T06:25:42.049Z,20.42
2018-01-10T06:26:13.626Z,21.02
2018-01-10T06:26:45.222Z,20.65
2018-01-10T06:27:16.820Z,20.95
2018-01-10T06:27:48.422Z,20.75
2018-01-10T06:28:20.379Z,20.92
2018-01-10T06:28:51.939Z,19.42
2018-01-10T06:29:23.498Z,19.40
2018-01-10T06:29:55.050Z,19.37
2018-01-10T06:30:26.638Z,20.73
2018-01-10T06:30:58.206Z,21.87
2018-01-10T06:31:29.774Z,21.73
2018-01-10T06:32:01.328Z,20.67
2018-01-10T06:32:32.897Z,21.25
2018-01-10T06:33:04.464Z,20.48
2018-01-10T06:33:36.020Z,20.35
2018-01-10T06:34:07.592Z,20.40
2018-01-10T06:34:39.148Z,20.67
2018-01-10T06:35:10.730Z,20.83
2018-01-10T06:35:42.308Z,20.00
2018-01-10T06:36:13.880Z,20.80
2018-01-10T06:36:45.498Z,20.27
2018-01-10T06:37:17.067Z,19.27
2018-01-10T06:37:48.686Z,20.60
2018-01-10T06:38:20.270Z,20.75
2018-01-10T06:38:51.811Z,19.58
2018-01-10T06:39:23.362Z,21.60
2018-01-10T06:39:54.941Z,20.56
2018-01-10T06:40:26.524Z,20.75
2018-01-10T06:40:58.076Z,20.10
2018-01-10T06:41:29.680Z,20.33
2018-01-10T06:42:01.268Z,20.05
2018-01-10T06:42:32.830Z,21.30
2018-01-10T06:43:04.411Z,20.98
2018-01-10T06:43:35.990Z,21.45
2018-01-10T06:44:07.564Z,21.08
2018-01-10T06:44:39.139Z,20.98
2018-01-10T06:45:10.721Z,20.23
2018-01-10T06:45:42.284Z,20.08
2018-01-10T06:46:13.846Z,19.92
2018-01-10T06:46:45.450Z,19.15